createdAt,value
2023-03-12T00:01:50.507Z,69.90
2023-03-12T00:04:36.567Z,69.41
2023-03-12T00:07:22.501Z,69.44
2023-03-12T00:10:08.595Z,68.95
2023-03-12T00:12:54.311Z,69.26
2023-03-12T00:15:39.795Z,69.26
2023-03-12T00:18:25.309Z,68.82
2023-03-12T00:21:10.986Z,69.05
2023-03-12T00:23:56.527Z,68.71
2023-03-12T00:26:42.254Z,68.89
2023-03-12T00:29:28.376Z,68.97
2023-03-12T00:32:14.550Z,68.51
2023-03-12T00:34:59.747Z,68.55
2023-03-12T00:37:45.458Z,68.75
2023-03-12T00:40:31.161Z,68.47
2023-03-12T00:43:17.182Z,68.64
2023-03-12T00:46:02.662Z,68.92
2023-03-12T00:48:48.211Z,68.43
2023-03-12T00:51:33.651Z,68.46
2023-03-12T00:54:18.823Z,68.50
2023-03-12T00:57:04.334Z,68.52
2023-03-12T00:59:50.512Z,68.22
2023-03-12T01:02:36.996Z,68.11
2023-03-12T01:05:24.094Z,67.77
2023-03-12T01:08:10.874Z,67.47
2023-03-12T01:10:56.435Z,67.53
2023-03-12T01:13:43.389Z,67.68
2023-03-12T01:16:29.604Z,67.31
2023-03-12T01:19:15.066Z,67.41
2023-03-12T01:22:00.287Z,67.11
2023-03-12T01:24:46.473Z,67.43
2023-03-12T01:27:31.931Z,67.25
2023-03-12T01:30:17.656Z,67.69
2023-03-12T01:33:03.383Z,67.77
2023-03-12T01:35:49.216Z,67.76
2023-03-12T01:38:35.295Z,67.60
2023-03-12T01:41:21.944Z,67.48
2023-03-12T01:44:08.141Z,67.18
2023-03-12T01:46:53.742Z,67.04
2023-03-12T01:49:42.319Z,66.81
2023-03-12T01:52:32.292Z,67.05
2023-03-12T01:55:18.690Z,66.64
2023-03-12T01:58:07.900Z,67.20
2023-03-12T02:00:53.891Z,67.02
2023-03-12T02:03:39.760Z,67.37
2023-03-12T02:06:36.974Z,67.71
2023-03-12T02:09:22.430Z,67.44
2023-03-12T02:12:09.162Z,67.55
2023-03-12T02:14:54.651Z,68.08
2023-03-12T02:17:40.558Z,68.44
2023-03-12T02:20:39.844Z,68.62
2023-03-12T02:23:56.499Z,68.57
2023-03-12T02:26:43.059Z,69.04
2023-03-12T02:29:31.840Z,69.20
2023-03-12T02:32:23.320Z,69.57
2023-03-12T02:35:10.075Z,69.97
2023-03-12T02:37:56.820Z,70.33
2023-03-12T02:40:47.578Z,70.28
2023-03-12T02:43:33.054Z,70.23
2023-03-12T02:46:18.473Z,70.38
2023-03-12T02:49:04.378Z,70.27
2023-03-12T02:51:50.022Z,70.30
2023-03-12T02:54:35.645Z,70.35
2023-03-12T02:57:20.948Z,70.22
2023-03-12T03:00:10.812Z,70.09
2023-03-12T03:02:57.999Z,70.09
2023-03-12T03:05:43.459Z,69.86
2023-03-12T03:08:28.598Z,69.86
2023-03-12T03:11:14.024Z,69.47
2023-03-12T03:13:59.464Z,69.77
2023-03-12T03:16:45.020Z,69.61
2023-03-12T03:19:30.721Z,69.71
2023-03-12T03:22:17.460Z,69.32
2023-03-12T03:25:03.247Z,69.19
2023-03-12T03:27:49.012Z,69.46
2023-03-12T03:30:34.547Z,69.50
2023-03-12T03:33:21.896Z,70.06
2023-03-12T03:36:08.712Z,70.54
2023-03-12T03:38:58.313Z,70.69
2023-03-12T03:41:43.828Z,71.18
2023-03-12T03:44:29.230Z,70.94
2023-03-12T03:47:14.804Z,70.46
2023-03-12T03:50:00.023Z,70.25
2023-03-12T03:52:45.440Z,70.72
2023-03-12T03:55:31.326Z,71.03
2023-03-12T03:58:16.710Z,70.69
2023-03-12T04:01:02.520Z,70.88
2023-03-12T04:03:47.945Z,70.87
2023-03-12T04:06:33.255Z,71.44
2023-03-12T04:09:18.839Z,71.18
2023-03-12T04:12:04.565Z,71.17
2023-03-12T04:14:50.271Z,71.29
2023-03-12T04:17:35.616Z,70.77
2023-03-12T04:20:21.487Z,70.76
2023-03-12T04:23:07.082Z,71.03
2023-03-12T04:25:52.140Z,70.55
2023-03-12T04:28:38.198Z,70.44
2023-03-12T04:31:23.496Z,70.54
2023-03-12T04:34:11.464Z,70.12
2023-03-12T04:37:01.489Z,70.32
2023-03-12T04:39:46.851Z,70.29
2023-03-12T04:42:35.242Z,70.75
2023-03-12T04:45:20.782Z,70.76
2023-03-12T04:48:06.264Z,70.88
2023-03-12T04:50:51.514Z,70.97
2023-03-12T04:53:37.114Z,70.88
2023-03-12T04:56:22.922Z,71.56
2023-03-12T04:59:08.071Z,71.82
2023-03-12T05:01:53.314Z,71.68
2023-03-12T05:04:43.338Z,72.19
2023-03-12T05:07:28.849Z,71.59
2023-03-12T05:10:13.999Z,71.92
2023-03-12T05:12:59.332Z,72.00
2023-03-12T05:15:45.988Z,71.50
2023-03-12T05:18:31.150Z,71.90
2023-03-12T05:21:19.096Z,72.18
2023-03-12T05:24:04.541Z,71.81
2023-03-12T05:26:50.239Z,72.27
2023-03-12T05:29:39.159Z,71.80
2023-03-12T05:32:25.150Z,71.46
2023-03-12T05:35:11.307Z,71.65
2023-03-12T05:37:58.153Z,71.43
2023-03-12T05:40:44.040Z,71.62
2023-03-12T05:43:29.391Z,71.42
2023-03-12T05:46:15.456Z,70.99
2023-03-12T05:49:00.868Z,71.71
2023-03-12T05:51:48.941Z,71.17
2023-03-12T05:54:34.113Z,71.33
2023-03-12T05:57:22.294Z,71.48
2023-03-12T06:00:08.648Z,71.21
2023-03-12T06:03:08.438Z,71.19
2023-03-12T06:05:54.063Z,71.32
2023-03-12T06:08:41.291Z,71.54
2023-03-12T06:11:27.233Z,71.61
2023-03-12T06:14:12.834Z,71.59
2023-03-12T06:16:58.321Z,71.37
2023-03-12T06:19:43.863Z,72.48
2023-03-12T06:22:28.980Z,73.13
2023-03-12T06:25:14.471Z,73.24
2023-03-12T06:27:59.943Z,73.57
2023-03-12T06:30:45.476Z,73.44
2023-03-12T06:33:31.356Z,72.57
2023-03-12T06:36:17.522Z,73.17
2023-03-12T06:39:03.721Z,73.42
2023-03-12T06:41:48.899Z,73.54
2023-03-12T06:44:34.508Z,72.94
2023-03-12T06:47:19.707Z,72.10
2023-03-12T06:50:05.523Z,72.50
2023-03-12T06:52:51.134Z,72.21
2023-03-12T06:55:36.155Z,71.07
2023-03-12T06:58:21.361Z,71.44
2023-03-12T07:01:06.589Z,71.31
2023-03-12T07:03:52.139Z,70.91
2023-03-12T07:06:37.792Z,70.83
2023-03-12T07:09:23.965Z,71.05
2023-03-12T07:12:09.631Z,70.62
2023-03-12T07:14:55.262Z,70.33
2023-03-12T07:17:43.607Z,72.04
2023-03-12T07:20:29.286Z,69.82
2023-03-12T07:23:14.714Z,68.76
2023-03-12T07:26:00.035Z,68.54
2023-03-12T07:28:45.718Z,68.54
2023-03-12T07:31:31.300Z,67.46
2023-03-12T07:34:16.579Z,70.74
2023-03-12T07:37:01.800Z,68.78
2023-03-12T07:39:47.513Z,67.05
2023-03-12T07:42:33.229Z,64.75
2023-03-12T07:45:18.943Z,63.23
2023-03-12T07:48:05.018Z,66.21
2023-03-12T07:50:50.872Z,65.42
2023-03-12T07:53:36.177Z,66.38
2023-03-12T07:56:21.529Z,66.70
2023-03-12T07:59:07.422Z,65.73
2023-03-12T08:01:52.925Z,65.91
2023-03-12T08:04:38.689Z,65.68
2023-03-12T08:07:23.819Z,67.60
2023-03-12T08:10:10.137Z,68.42
2023-03-12T08:12:55.550Z,67.88
2023-03-12T08:15:40.811Z,67.16
2023-03-12T08:18:26.202Z,67.15
2023-03-12T08:21:11.733Z,62.25
2023-03-12T08:23:56.931Z,64.26
2023-03-12T08:26:42.186Z,65.35
2023-03-12T08:29:27.804Z,63.59
2023-03-12T08:32:13.294Z,63.36
2023-03-12T08:34:59.943Z,57.88
2023-03-12T08:37:45.399Z,59.83
2023-03-12T08:40:31.331Z,61.78
2023-03-12T08:43:16.919Z,62.32
2023-03-12T08:46:03.175Z,61.54
2023-03-12T08:48:48.617Z,61.65
2023-03-12T08:51:33.652Z,58.52
2023-03-12T08:54:20.769Z,60.38
2023-03-12T08:57:06.306Z,62.12
2023-03-12T08:59:51.534Z,62.03
2023-03-12T09:02:37.835Z,61.96
2023-03-12T09:05:25.238Z,60.44
2023-03-12T09:08:11.702Z,59.85
2023-03-12T09:10:57.243Z,60.65
2023-03-12T09:14:33.450Z,63.23
2023-03-12T09:16:50.216Z,63.43
2023-03-12T09:19:35.529Z,62.10
2023-03-12T09:22:21.505Z,61.92
2023-03-12T09:25:08.921Z,59.23
2023-03-12T09:27:54.197Z,58.00
2023-03-12T09:30:40.368Z,59.19
2023-03-12T09:33:25.892Z,57.85
2023-03-12T09:36:11.471Z,57.93
2023-03-12T09:38:56.764Z,59.95
2023-03-12T09:41:45.798Z,60.29
2023-03-12T09:44:39.792Z,60.74
2023-03-12T09:47:46.510Z,62.25
2023-03-12T09:50:37.592Z,62.24
2023-03-12T09:53:48.312Z,60.65
2023-03-12T09:56:34.472Z,60.34
2023-03-12T09:59:19.870Z,60.73
2023-03-12T10:02:26.590Z,61.83
2023-03-12T10:05:36.676Z,61.80
2023-03-12T10:08:27.310Z,64.73
2023-03-12T10:11:45.441Z,64.38
2023-03-12T10:14:42.580Z,62.97
2023-03-12T10:17:49.492Z,63.59
2023-03-12T10:20:59.378Z,62.71
2023-03-12T10:23:52.182Z,64.05
2023-03-12T10:26:40.320Z,64.91
2023-03-12T10:29:31.493Z,65.28
2023-03-12T10:32:22.761Z,64.59
2023-03-12T10:35:23.186Z,64.47
2023-03-12T10:38:26.364Z,63.03
2023-03-12T10:41:16.943Z,64.36
2023-03-12T10:44:08.545Z,64.26
2023-03-12T10:47:15.524Z,65.08
2023-03-12T10:50:20.568Z,64.59
2023-03-12T10:53:22.151Z,64.88
2023-03-12T10:56:13.619Z,64.45
2023-03-12T10:58:59.311Z,65.59
2023-03-12T11:01:49.839Z,65.69
2023-03-12T11:04:35.213Z,65.41
2023-03-12T11:07:20.582Z,65.17
2023-03-12T11:10:05.790Z,64.27
2023-03-12T11:12:56.251Z,64.04
2023-03-12T11:15:43.382Z,64.61
2023-03-12T11:18:31.541Z,65.60
2023-03-12T11:21:18.205Z,65.53
2023-03-12T11:24:05.518Z,65.36
2023-03-12T11:26:57.226Z,67.31
2023-03-12T11:29:49.306Z,68.28
2023-03-12T11:32:39.538Z,68.02
2023-03-12T11:35:41.261Z,68.52
2023-03-12T11:38:34.866Z,69.20
2023-03-12T11:41:27.143Z,69.70
2023-03-12T11:44:48.821Z,71.52
2023-03-12T11:47:46.353Z,70.79
2023-03-12T11:51:05.725Z,71.61
2023-03-12T11:53:53.780Z,72.82
2023-03-12T11:56:45.158Z,73.52
2023-03-12T12:00:02.298Z,72.90
2023-03-12T12:03:24.745Z,75.64
2023-03-12T12:06:16.133Z,76.07
2023-03-12T12:09:28.471Z,77.19
2023-03-12T12:12:51.671Z,76.50
2023-03-12T12:15:48.070Z,78.64
2023-03-12T12:19:07.128Z,78.29
2023-03-12T12:21:55.521Z,78.96
2023-03-12T12:24:47.046Z,80.42
2023-03-12T12:27:41.573Z,82.48
2023-03-12T12:30:57.490Z,82.19
2023-03-12T12:33:50.599Z,82.84
2023-03-12T12:36:36.630Z,83.14
2023-03-12T12:39:40.081Z,85.10
2023-03-12T12:42:31.691Z,84.72
2023-03-12T12:45:17.483Z,85.37
2023-03-12T12:48:29.321Z,83.65
2023-03-12T12:51:19.511Z,84.89
2023-03-12T12:54:12.763Z,83.46
2023-03-12T12:57:15.509Z,83.50
2023-03-12T13:00:25.380Z,83.50
2023-03-12T13:03:23.652Z,84.81
2023-03-12T13:06:09.052Z,84.15
2023-03-12T13:08:54.510Z,84.13
2023-03-12T13:11:49.411Z,85.78
2023-03-12T13:14:38.808Z,85.69
2023-03-12T13:17:55.959Z,86.42
2023-03-12T13:21:01.591Z,85.89
2023-03-12T13:24:03.004Z,85.18
2023-03-12T13:27:02.615Z,84.65
2023-03-12T13:29:48.379Z,83.55
2023-03-12T13:32:59.568Z,84.87
2023-03-12T13:36:10.425Z,85.23
2023-03-12T13:39:30.780Z,85.84
2023-03-12T13:42:25.218Z,85.37
2023-03-12T13:45:26.096Z,84.75
2023-03-12T13:48:16.220Z,84.64
2023-03-12T13:51:16.508Z,84.98
2023-03-12T13:54:03.555Z,84.45
2023-03-12T13:57:04.447Z,84.29
2023-03-12T13:59:51.347Z,83.08
2023-03-12T14:02:43.757Z,82.30
2023-03-12T14:05:30.762Z,81.74
2023-03-12T14:08:34.552Z,81.11
2023-03-12T14:11:31.727Z,81.68
2023-03-12T14:14:32.994Z,82.00
2023-03-12T14:17:25.530Z,82.79
2023-03-12T14:20:20.353Z,81.82
2023-03-12T14:23:09.691Z,83.04
2023-03-12T14:26:02.317Z,83.16
2023-03-12T14:28:57.684Z,84.61
2023-03-12T14:31:43.945Z,84.43
2023-03-12T14:34:38.639Z,84.90
2023-03-12T14:37:32.582Z,83.21
2023-03-12T14:40:41.828Z,83.62
2023-03-12T14:43:35.148Z,85.11
2023-03-12T14:46:23.293Z,84.42
2023-03-12T14:49:19.288Z,85.38
2023-03-12T14:52:04.858Z,85.41
2023-03-12T14:54:54.317Z,85.53
2023-03-12T14:57:39.457Z,85.69
2023-03-12T15:00:27.472Z,85.49
2023-03-12T15:03:16.486Z,84.96
2023-03-12T15:06:01.715Z,86.14
2023-03-12T15:08:47.309Z,86.71
2023-03-12T15:11:35.860Z,85.65
2023-03-12T15:14:23.484Z,84.61
2023-03-12T15:17:17.545Z,83.94
2023-03-12T15:20:07.135Z,84.45
2023-03-12T15:22:54.057Z,84.57
2023-03-12T15:25:39.580Z,84.25
2023-03-12T15:28:27.233Z,84.79
2023-03-12T15:31:15.819Z,83.44
2023-03-12T15:34:04.720Z,82.75
2023-03-12T15:36:50.211Z,81.94
2023-03-12T15:39:38.244Z,82.06
2023-03-12T15:42:25.995Z,82.68
2023-03-12T15:45:29.611Z,83.81
2023-03-12T15:48:21.329Z,83.79
2023-03-12T15:51:30.821Z,84.49
2023-03-12T15:54:16.156Z,83.85
2023-03-12T15:57:22.143Z,84.71
2023-03-12T16:00:10.381Z,85.47
2023-03-12T16:02:57.281Z,85.59
2023-03-12T16:05:43.278Z,86.82
2023-03-12T16:08:56.762Z,85.27
2023-03-12T16:11:43.838Z,84.05
2023-03-12T16:14:34.948Z,85.41
2023-03-12T16:17:21.437Z,84.66
2023-03-12T16:20:09.446Z,83.86
2023-03-12T16:22:55.906Z,84.78
2023-03-12T16:25:45.961Z,85.40
2023-03-12T16:28:33.886Z,86.15
2023-03-12T16:31:19.078Z,86.54
2023-03-12T16:34:04.655Z,86.17
2023-03-12T16:36:50.274Z,85.59
2023-03-12T16:39:35.918Z,87.60
2023-03-12T16:42:21.366Z,87.98
2023-03-12T16:45:10.157Z,86.43
2023-03-12T16:48:00.228Z,86.72
2023-03-12T16:50:51.414Z,86.96
2023-03-12T16:53:36.694Z,86.01
2023-03-12T16:56:24.486Z,87.12
2023-03-12T16:59:28.273Z,88.17
2023-03-12T17:02:18.611Z,88.32
2023-03-12T17:05:04.334Z,88.53
2023-03-12T17:07:51.023Z,88.36
2023-03-12T17:10:36.446Z,88.61
2023-03-12T17:13:25.676Z,87.41
2023-03-12T17:16:12.749Z,86.16
2023-03-12T17:18:58.098Z,86.47
2023-03-12T17:21:44.570Z,87.51
2023-03-12T17:24:30.013Z,86.98
2023-03-12T17:27:15.626Z,87.26
2023-03-12T17:30:01.594Z,88.38
2023-03-12T17:32:46.701Z,89.00
2023-03-12T17:35:32.430Z,89.38
2023-03-12T17:38:17.613Z,88.91
2023-03-12T17:41:04.782Z,88.78
2023-03-12T17:43:51.272Z,89.45
2023-03-12T17:46:36.896Z,89.57
2023-03-12T17:49:22.429Z,89.49
2023-03-12T17:52:08.183Z,89.41
2023-03-12T17:54:53.575Z,89.07
2023-03-12T17:57:39.446Z,89.16
2023-03-12T18:00:24.955Z,90.22
2023-03-12T18:03:10.600Z,92.08
2023-03-12T18:05:55.997Z,91.96
2023-03-12T18:08:41.280Z,91.74
2023-03-12T18:11:26.654Z,92.85
2023-03-12T18:14:11.860Z,91.94
2023-03-12T18:16:57.319Z,92.44
2023-03-12T18:19:42.663Z,93.11
2023-03-12T18:22:28.162Z,92.84
2023-03-12T18:25:14.420Z,94.39
2023-03-12T18:27:59.698Z,92.50
2023-03-12T18:30:46.051Z,93.15
2023-03-12T18:33:31.298Z,92.38
2023-03-12T18:36:16.577Z,92.59
2023-03-12T18:39:01.959Z,91.29
2023-03-12T18:41:48.182Z,90.51
2023-03-12T18:44:33.364Z,90.24
2023-03-12T18:47:19.263Z,89.98
2023-03-12T18:50:07.912Z,90.32
2023-03-12T18:52:53.299Z,91.11
2023-03-12T18:55:38.427Z,91.82
2023-03-12T18:58:25.925Z,91.14
2023-03-12T19:01:11.413Z,91.84
2023-03-12T19:03:57.807Z,90.64
2023-03-12T19:06:51.213Z,89.04
2023-03-12T19:09:37.087Z,88.89
2023-03-12T19:12:22.399Z,89.41
2023-03-12T19:15:08.273Z,89.61
2023-03-12T19:17:53.782Z,88.55
2023-03-12T19:20:39.267Z,88.85
2023-03-12T19:23:24.921Z,89.43
2023-03-12T19:26:10.881Z,88.28
2023-03-12T19:28:56.148Z,87.88
2023-03-12T19:31:43.591Z,87.79
2023-03-12T19:34:29.331Z,88.63
2023-03-12T19:37:17.768Z,88.97
2023-03-12T19:40:04.030Z,86.96
2023-03-12T19:42:50.944Z,87.15
2023-03-12T19:45:36.776Z,86.99
2023-03-12T19:48:23.340Z,86.74
2023-03-12T19:51:10.790Z,86.56
2023-03-12T19:53:56.006Z,86.94
2023-03-12T19:56:41.377Z,87.07
2023-03-12T19:59:26.597Z,87.30
2023-03-12T20:02:14.639Z,87.36
2023-03-12T20:05:01.467Z,87.71
2023-03-12T20:07:47.207Z,88.09
2023-03-12T20:10:32.699Z,88.18
2023-03-12T20:13:17.972Z,88.62
2023-03-12T20:16:04.345Z,87.18
2023-03-12T20:18:50.088Z,87.74
2023-03-12T20:21:35.204Z,87.08
2023-03-12T20:24:20.429Z,85.87
2023-03-12T20:27:06.628Z,85.60
2023-03-12T20:29:51.819Z,85.15
2023-03-12T20:32:37.636Z,84.97
2023-03-12T20:35:23.324Z,85.98
2023-03-12T20:38:09.695Z,85.24
2023-03-12T20:40:55.108Z,86.29
2023-03-12T20:43:41.526Z,86.33
2023-03-12T20:46:27.181Z,86.46
2023-03-12T20:49:13.122Z,85.74
2023-03-12T20:51:58.630Z,85.18
2023-03-12T20:54:44.169Z,84.92
2023-03-12T20:57:29.315Z,85.30
2023-03-12T21:00:14.978Z,84.96
2023-03-12T21:03:00.183Z,84.83
2023-03-12T21:05:56.472Z,84.78
2023-03-12T21:08:41.649Z,84.71
2023-03-12T21:11:26.890Z,85.20
2023-03-12T21:14:12.381Z,84.99
2023-03-12T21:16:57.678Z,85.32
2023-03-12T21:19:43.217Z,84.33
2023-03-12T21:22:32.041Z,84.77
2023-03-12T21:25:17.554Z,85.39
2023-03-12T21:28:04.927Z,86.11
2023-03-12T21:30:50.392Z,85.74
2023-03-12T21:33:36.163Z,84.45
2023-03-12T21:36:21.667Z,83.99
2023-03-12T21:39:07.189Z,84.01
2023-03-12T21:41:52.546Z,83.55
2023-03-12T21:44:38.448Z,83.59
2023-03-12T21:47:23.889Z,83.47
2023-03-12T21:50:10.721Z,82.98
2023-03-12T21:52:55.773Z,83.38
2023-03-12T21:55:41.357Z,82.48
2023-03-12T21:58:28.035Z,83.68
2023-03-12T22:01:17.837Z,83.27
2023-03-12T22:04:03.129Z,82.15
2023-03-12T22:06:48.421Z,81.51
2023-03-12T22:09:33.730Z,81.15
2023-03-12T22:12:19.098Z,80.36
2023-03-12T22:15:06.715Z,79.56
2023-03-12T22:17:52.145Z,80.41
2023-03-12T22:20:37.368Z,81.14
2023-03-12T22:23:23.972Z,80.86
2023-03-12T22:26:09.340Z,79.45
2023-03-12T22:28:56.651Z,80.44
2023-03-12T22:31:41.668Z,79.55
2023-03-12T22:34:26.993Z,79.21
2023-03-12T22:37:12.182Z,78.91
2023-03-12T22:39:57.349Z,78.25
2023-03-12T22:42:49.297Z,78.22
2023-03-12T22:45:35.156Z,78.52
2023-03-12T22:48:20.560Z,77.26
2023-03-12T22:51:06.369Z,77.61
2023-03-12T22:53:53.043Z,77.71
2023-03-12T22:56:38.455Z,78.38
2023-03-12T22:59:23.754Z,77.67
2023-03-12T23:02:09.245Z,77.80
2023-03-12T23:04:54.391Z,77.33
2023-03-12T23:07:39.755Z,76.74
2023-03-12T23:10:25.371Z,77.07
2023-03-12T23:13:10.731Z,78.43
2023-03-12T23:16:01.639Z,78.12
2023-03-12T23:18:48.118Z,77.99
2023-03-12T23:21:33.398Z,77.00
2023-03-12T23:24:18.836Z,77.95
2023-03-12T23:27:04.372Z,78.55
2023-03-12T23:29:50.073Z,78.24
2023-03-12T23:32:35.457Z,77.96
2023-03-12T23:35:20.836Z,78.06
2023-03-12T23:38:06.489Z,77.96
2023-03-12T23:40:52.474Z,76.87
2023-03-12T23:43:38.149Z,76.80
2023-03-12T23:46:23.672Z,77.07
2023-03-12T23:49:08.888Z,76.10
2023-03-12T23:51:54.103Z,76.13
2023-03-12T23:54:39.704Z,76.97
2023-03-12T23:57:24.858Z,76.97
